sensor_id;sensor_type;location;lat;lon;timestamp;temperature;humidity
1880;DHT22;49285;49.002;8.390;2023-10-31T00:01:21;13.50;99.90
1880;DHT22;49285;49.002;8.390;2023-10-31T00:03:46;13.50;99.90
1880;DHT22;49285;49.002;8.390;2023-10-31T00:06:12;13.50;99.90
1880;DHT22;49285;49.002;8.390;2023-10-31T00:08:38;13.50;99.90
1880;DHT22;49285;49.002;8.390;2023-10-31T00:11:03;13.50;99.90
1880;DHT22;49285;49.002;8.390;2023-10-31T00:13:29;13.40;99.90
1880;DHT22;49285;49.002;8.390;2023-10-31T00:15:54;13.50;99.90
1880;DHT22;49285;49.002;8.390;2023-10-31T00:18:20;13.50;99.90
1880;DHT22;49285;49.002;8.390;2023-10-31T00:20:46;13.40;99.90
1880;DHT22;49285;49.002;8.390;2023-10-31T00:23:12;13.50;99.90
1880;DHT22;49285;49.002;8.390;2023-10-31T00:25:37;13.50;99.90
1880;DHT22;49285;49.002;8.390;2023-10-31T00:28:03;13.60;99.90
1880;DHT22;49285;49.002;8.390;2023-10-31T00:30:29;13.50;99.90
1880;DHT22;49285;49.002;8.390;2023-10-31T00:32:54;13.40;99.90
1880;DHT22;49285;49.002;8.390;2023-10-31T00:35:20;13.40;99.90
1880;DHT22;49285;49.002;8.390;2023-10-31T00:37:46;13.30;99.90
1880;DHT22;49285;49.002;8.390;2023-10-31T00:40:11;13.30;99.90
1880;DHT22;49285;49.002;8.390;2023-10-31T00:42:38;13.30;99.90
1880;DHT22;49285;49.002;8.390;2023-10-31T00:45:04;13.30;99.90
1880;DHT22;49285;49.002;8.390;2023-10-31T00:47:29;13.30;99.90
1880;DHT22;49285;49.002;8.390;2023-10-31T00:49:55;13.30;99.90
1880;DHT22;49285;49.002;8.390;2023-10-31T00:52:21;13.40;99.90
1880;DHT22;49285;49.002;8.390;2023-10-31T00:54:46;13.40;99.90
1880;DHT22;49285;49.002;8.390;2023-10-31T00:57:15;13.40;99.90
1880;DHT22;49285;49.002;8.390;2023-10-31T00:59:40;13.40;99.90
1880;DHT22;49285;49.002;8.390;2023-10-31T01:02:06;13.50;99.90
1880;DHT22;49285;49.002;8.390;2023-10-31T01:04:32;13.30;99.90
1880;DHT22;49285;49.002;8.390;2023-10-31T01:06:57;13.40;99.90
1880;DHT22;49285;49.002;8.390;2023-10-31T01:09:23;13.40;99.90
1880;DHT22;49285;49.002;8.390;2023-10-31T01:11:48;13.40;99.90
1880;DHT22;49285;49.002;8.390;2023-10-31T01:14:14;13.40;99.90
1880;DHT22;49285;49.002;8.390;2023-10-31T01:16:40;13.50;99.90
1880;DHT22;49285;49.002;8.390;2023-10-31T01:19:06;13.50;99.90
1880;DHT22;49285;49.002;8.390;2023-10-31T01:21:32;13.50;99.90
1880;DHT22;49285;49.002;8.390;2023-10-31T01:23:59;13.60;99.90
1880;DHT22;49285;49.002;8.390;2023-10-31T01:26:25;13.50;99.90
1880;DHT22;49285;49.002;8.390;2023-10-31T01:28:51;13.40;99.90
1880;DHT22;49285;49.002;8.390;2023-10-31T01:31:17;13.40;99.90
1880;DHT22;49285;49.002;8.390;2023-10-31T01:33:42;13.40;99.90
1880;DHT22;49285;49.002;8.390;2023-10-31T01:36:08;13.40;99.90
1880;DHT22;49285;49.002;8.390;2023-10-31T01:38:35;13.40;99.90
1880;DHT22;49285;49.002;8.390;2023-10-31T01:41:01;13.20;99.90
1880;DHT22;49285;49.002;8.390;2023-10-31T01:43:34;13.30;99.90
1880;DHT22;49285;49.002;8.390;2023-10-31T01:46:00;13.20;99.90
1880;DHT22;49285;49.002;8.390;2023-10-31T01:48:28;13.10;99.90
1880;DHT22;49285;49.002;8.390;2023-10-31T01:50:55;13.00;99.90
1880;DHT22;49285;49.002;8.390;2023-10-31T01:53:22;13.00;99.90
1880;DHT22;49285;49.002;8.390;2023-10-31T01:55:48;13.00;99.90
1880;DHT22;49285;49.002;8.390;2023-10-31T01:58:14;13.00;99.90
1880;DHT22;49285;49.002;8.390;2023-10-31T02:00:40;13.10;99.90
1880;DHT22;49285;49.002;8.390;2023-10-31T02:03:07;13.10;99.90
1880;DHT22;49285;49.002;8.390;2023-10-31T02:05:34;13.00;99.90
1880;DHT22;49285;49.002;8.390;2023-10-31T02:08:03;12.90;99.90
1880;DHT22;49285;49.002;8.390;2023-10-31T02:10:28;12.90;99.90
1880;DHT22;49285;49.002;8.390;2023-10-31T02:12:54;12.90;99.90
1880;DHT22;49285;49.002;8.390;2023-10-31T02:15:19;13.00;99.90
1880;DHT22;49285;49.002;8.390;2023-10-31T02:17:45;13.10;99.90
1880;DHT22;49285;49.002;8.390;2023-10-31T02:20:11;13.00;99.90
1880;DHT22;49285;49.002;8.390;2023-10-31T02:22:36;12.90;99.90
1880;DHT22;49285;49.002;8.390;2023-10-31T02:25:02;13.00;99.90
1880;DHT22;49285;49.002;8.390;2023-10-31T02:27:28;13.00;99.90
1880;DHT22;49285;49.002;8.390;2023-10-31T02:29:53;12.90;99.90
1880;DHT22;49285;49.002;8.390;2023-10-31T02:32:19;12.90;99.90
1880;DHT22;49285;49.002;8.390;2023-10-31T02:34:45;12.90;99.90
1880;DHT22;49285;49.002;8.390;2023-10-31T02:37:11;12.90;99.90
1880;DHT22;49285;49.002;8.390;2023-10-31T02:39:37;12.90;99.90
1880;DHT22;49285;49.002;8.390;2023-10-31T02:42:03;12.90;99.90
1880;DHT22;49285;49.002;8.390;2023-10-31T02:44:29;13.00;99.90
1880;DHT22;49285;49.002;8.390;2023-10-31T02:46:54;13.00;99.90
1880;DHT22;49285;49.002;8.390;2023-10-31T02:49:21;12.90;99.90
1880;DHT22;49285;49.002;8.390;2023-10-31T02:51:46;12.90;99.90
1880;DHT22;49285;49.002;8.390;2023-10-31T02:54:12;12.90;99.90
1880;DHT22;49285;49.002;8.390;2023-10-31T02:56:38;12.90;99.90
1880;DHT22;49285;49.002;8.390;2023-10-31T02:59:03;12.90;99.90
1880;DHT22;49285;49.002;8.390;2023-10-31T03:01:29;12.90;99.90
1880;DHT22;49285;49.002;8.390;2023-10-31T03:03:55;13.00;99.90
1880;DHT22;49285;49.002;8.390;2023-10-31T03:06:21;12.90;99.90
1880;DHT22;49285;49.002;8.390;2023-10-31T03:08:47;12.90;99.90
1880;DHT22;49285;49.002;8.390;2023-10-31T03:11:26;12.90;99.90
1880;DHT22;49285;49.002;8.390;2023-10-31T03:13:52;12.90;99.90
1880;DHT22;49285;49.002;8.390;2023-10-31T03:16:19;12.90;99.90
1880;DHT22;49285;49.002;8.390;2023-10-31T03:18:46;12.90;99.90
1880;DHT22;49285;49.002;8.390;2023-10-31T03:21:12;12.90;99.90
1880;DHT22;49285;49.002;8.390;2023-10-31T03:23:37;12.90;99.90
1880;DHT22;49285;49.002;8.390;2023-10-31T03:26:03;13.00;99.90
1880;DHT22;49285;49.002;8.390;2023-10-31T03:28:29;13.00;99.90
1880;DHT22;49285;49.002;8.390;2023-10-31T03:30:54;13.00;99.90
1880;DHT22;49285;49.002;8.390;2023-10-31T03:33:20;13.10;99.90
1880;DHT22;49285;49.002;8.390;2023-10-31T03:35:46;13.10;99.90
1880;DHT22;49285;49.002;8.390;2023-10-31T03:38:12;13.10;99.90
1880;DHT22;49285;49.002;8.390;2023-10-31T03:40:37;13.00;99.90
1880;DHT22;49285;49.002;8.390;2023-10-31T03:43:03;13.00;99.90
1880;DHT22;49285;49.002;8.390;2023-10-31T03:45:29;13.00;99.90
1880;DHT22;49285;49.002;8.390;2023-10-31T03:47:54;13.00;99.90
1880;DHT22;49285;49.002;8.390;2023-10-31T03:50:20;13.00;99.90
1880;DHT22;49285;49.002;8.390;2023-10-31T03:52:46;13.00;99.90
1880;DHT22;49285;49.002;8.390;2023-10-31T03:55:11;12.90;99.90
1880;DHT22;49285;49.002;8.390;2023-10-31T03:57:37;12.90;99.90
1880;DHT22;49285;49.002;8.390;2023-10-31T04:00:03;12.80;99.90
1880;DHT22;49285;49.002;8.390;2023-10-31T04:02:32;12.90;99.90
1880;DHT22;49285;49.002;8.390;2023-10-31T04:04:57;12.90;99.90
1880;DHT22;49285;49.002;8.390;2023-10-31T04:07:23;12.90;99.90
1880;DHT22;49285;49.002;8.390;2023-10-31T04:09:49;12.90;99.90
1880;DHT22;49285;49.002;8.390;2023-10-31T04:12:15;12.90;99.90
1880;DHT22;49285;49.002;8.390;2023-10-31T04:14:41;12.90;99.90
1880;DHT22;49285;49.002;8.390;2023-10-31T04:17:06;12.90;99.90
1880;DHT22;49285;49.002;8.390;2023-10-31T04:19:32;13.00;99.90
1880;DHT22;49285;49.002;8.390;2023-10-31T04:21:57;13.00;99.90
1880;DHT22;49285;49.002;8.390;2023-10-31T04:24:23;13.10;99.90
1880;DHT22;49285;49.002;8.390;2023-10-31T04:26:49;13.10;99.90
1880;DHT22;49285;49.002;8.390;2023-10-31T04:29:14;13.00;99.90
1880;DHT22;49285;49.002;8.390;2023-10-31T04:31:40;13.00;99.90
1880;DHT22;49285;49.002;8.390;2023-10-31T04:34:05;13.00;99.90
1880;DHT22;49285;49.002;8.390;2023-10-31T04:36:31;13.00;99.90
1880;DHT22;49285;49.002;8.390;2023-10-31T04:38:56;12.90;99.90
1880;DHT22;49285;49.002;8.390;2023-10-31T04:41:22;12.90;99.90
1880;DHT22;49285;49.002;8.390;2023-10-31T04:43:48;13.00;99.90
1880;DHT22;49285;49.002;8.390;2023-10-31T04:46:13;13.00;99.90
1880;DHT22;49285;49.002;8.390;2023-10-31T04:48:39;12.90;99.90
1880;DHT22;49285;49.002;8.390;2023-10-31T04:51:05;12.90;99.90
1880;DHT22;49285;49.002;8.390;2023-10-31T04:53:31;12.90;99.90
1880;DHT22;49285;49.002;8.390;2023-10-31T04:55:58;12.90;99.90
1880;DHT22;49285;49.002;8.390;2023-10-31T04:58:24;13.00;99.90
1880;DHT22;49285;49.002;8.390;2023-10-31T05:00:50;12.90;99.90
1880;DHT22;49285;49.002;8.390;2023-10-31T05:03:16;13.00;99.90
1880;DHT22;49285;49.002;8.390;2023-10-31T05:05:41;13.00;99.90
1880;DHT22;49285;49.002;8.390;2023-10-31T05:08:07;13.00;99.90
1880;DHT22;49285;49.002;8.390;2023-10-31T05:10:33;12.90;99.90
1880;DHT22;49285;49.002;8.390;2023-10-31T05:13:00;12.90;99.90
1880;DHT22;49285;49.002;8.390;2023-10-31T05:15:25;12.90;99.90
1880;DHT22;49285;49.002;8.390;2023-10-31T05:17:51;12.80;99.90
1880;DHT22;49285;49.002;8.390;2023-10-31T05:20:16;12.70;99.90
1880;DHT22;49285;49.002;8.390;2023-10-31T05:22:42;12.60;99.90
1880;DHT22;49285;49.002;8.390;2023-10-31T05:25:08;12.70;99.90
1880;DHT22;49285;49.002;8.390;2023-10-31T05:27:33;12.70;99.90
1880;DHT22;49285;49.002;8.390;2023-10-31T05:29:59;12.70;99.90
1880;DHT22;49285;49.002;8.390;2023-10-31T05:32:24;12.70;99.90
1880;DHT22;49285;49.002;8.390;2023-10-31T05:34:50;12.60;99.90
1880;DHT22;49285;49.002;8.390;2023-10-31T05:37:16;12.70;99.90
1880;DHT22;49285;49.002;8.390;2023-10-31T05:39:41;12.70;99.90
1880;DHT22;49285;49.002;8.390;2023-10-31T05:42:07;12.70;99.90
1880;DHT22;49285;49.002;8.390;2023-10-31T05:44:33;12.70;99.90
1880;DHT22;49285;49.002;8.390;2023-10-31T05:46:58;12.80;99.90
1880;DHT22;49285;49.002;8.390;2023-10-31T05:49:24;12.80;99.90
1880;DHT22;49285;49.002;8.390;2023-10-31T05:51:53;12.80;99.90
1880;DHT22;49285;49.002;8.390;2023-10-31T05:54:19;12.80;99.90
1880;DHT22;49285;49.002;8.390;2023-10-31T05:56:44;12.70;99.90
1880;DHT22;49285;49.002;8.390;2023-10-31T05:59:13;12.60;99.90
1880;DHT22;49285;49.002;8.390;2023-10-31T06:01:39;12.70;99.90
1880;DHT22;49285;49.002;8.390;2023-10-31T06:04:05;12.60;99.90
1880;DHT22;49285;49.002;8.390;2023-10-31T06:06:37;12.60;99.90
1880;DHT22;49285;49.002;8.390;2023-10-31T06:09:03;12.60;99.90
1880;DHT22;49285;49.002;8.390;2023-10-31T06:11:29;12.60;99.90
1880;DHT22;49285;49.002;8.390;2023-10-31T06:13:55;12.60;99.90
1880;DHT22;49285;49.002;8.390;2023-10-31T06:16:21;12.70;99.90
1880;DHT22;49285;49.002;8.390;2023-10-31T06:18:46;12.70;99.90
1880;DHT22;49285;49.002;8.390;2023-10-31T06:21:12;12.70;99.90
1880;DHT22;49285;49.002;8.390;2023-10-31T06:23:38;12.50;99.90
1880;DHT22;49285;49.002;8.390;2023-10-31T06:26:04;12.60;99.90
1880;DHT22;49285;49.002;8.390;2023-10-31T06:28:30;12.60;99.90
1880;DHT22;49285;49.002;8.390;2023-10-31T06:30:55;12.60;99.90
1880;DHT22;49285;49.002;8.390;2023-10-31T06:33:21;12.60;99.90
1880;DHT22;49285;49.002;8.390;2023-10-31T06:35:46;12.60;99.90
1880;DHT22;49285;49.002;8.390;2023-10-31T06:38:12;12.60;99.90
1880;DHT22;49285;49.002;8.390;2023-10-31T06:40:38;12.50;99.90
1880;DHT22;49285;49.002;8.390;2023-10-31T06:43:04;12.40;99.90
1880;DHT22;49285;49.002;8.390;2023-10-31T06:45:29;12.40;99.90
1880;DHT22;49285;49.002;8.390;2023-10-31T06:47:55;12.40;99.90
1880;DHT22;49285;49.002;8.390;2023-10-31T06:50:20;12.40;99.90
1880;DHT22;49285;49.002;8.390;2023-10-31T06:52:46;12.30;99.90
1880;DHT22;49285;49.002;8.390;2023-10-31T06:55:12;12.40;99.90
1880;DHT22;49285;49.002;8.390;2023-10-31T06:57:38;12.40;99.90
1880;DHT22;49285;49.002;8.390;2023-10-31T07:00:04;12.30;99.90
1880;DHT22;49285;49.002;8.390;2023-10-31T07:02:33;12.40;99.90
1880;DHT22;49285;49.002;8.390;2023-10-31T07:04:59;12.50;99.90
1880;DHT22;49285;49.002;8.390;2023-10-31T07:07:24;12.50;99.90
1880;DHT22;49285;49.002;8.390;2023-10-31T07:09:50;12.60;99.90
1880;DHT22;49285;49.002;8.390;2023-10-31T07:12:15;12.60;99.90
1880;DHT22;49285;49.002;8.390;2023-10-31T07:14:41;12.70;99.90
1880;DHT22;49285;49.002;8.390;2023-10-31T07:17:07;12.70;99.90
1880;DHT22;49285;49.002;8.390;2023-10-31T07:19:32;12.70;99.90
1880;DHT22;49285;49.002;8.390;2023-10-31T07:21:58;12.80;99.90
1880;DHT22;49285;49.002;8.390;2023-10-31T07:24:23;12.80;99.90
1880;DHT22;49285;49.002;8.390;2023-10-31T07:26:49;12.80;99.90
1880;DHT22;49285;49.002;8.390;2023-10-31T07:29:15;12.80;99.90
1880;DHT22;49285;49.002;8.390;2023-10-31T07:31:41;12.80;99.90
1880;DHT22;49285;49.002;8.390;2023-10-31T07:34:06;12.80;99.90
1880;DHT22;49285;49.002;8.390;2023-10-31T07:36:32;12.80;99.90
1880;DHT22;49285;49.002;8.390;2023-10-31T07:39:00;12.80;99.90
1880;DHT22;49285;49.002;8.390;2023-10-31T07:41:26;12.90;99.90
1880;DHT22;49285;49.002;8.390;2023-10-31T07:43:52;12.90;99.90
1880;DHT22;49285;49.002;8.390;2023-10-31T07:46:17;12.90;99.90
1880;DHT22;49285;49.002;8.390;2023-10-31T07:48:43;12.90;99.90
1880;DHT22;49285;49.002;8.390;2023-10-31T07:51:09;12.80;99.90
1880;DHT22;49285;49.002;8.390;2023-10-31T07:53:35;12.80;99.90
1880;DHT22;49285;49.002;8.390;2023-10-31T07:56:03;12.90;99.90
1880;DHT22;49285;49.002;8.390;2023-10-31T07:58:29;13.00;99.90
1880;DHT22;49285;49.002;8.390;2023-10-31T08:00:55;13.10;99.90
1880;DHT22;49285;49.002;8.390;2023-10-31T08:03:21;13.00;99.90
1880;DHT22;49285;49.002;8.390;2023-10-31T08:05:47;13.10;99.90
1880;DHT22;49285;49.002;8.390;2023-10-31T08:08:12;13.20;99.90
1880;DHT22;49285;49.002;8.390;2023-10-31T08:10:38;13.20;99.90
1880;DHT22;49285;49.002;8.390;2023-10-31T08:13:03;13.40;99.90
1880;DHT22;49285;49.002;8.390;2023-10-31T08:15:29;13.40;99.90
1880;DHT22;49285;49.002;8.390;2023-10-31T08:17:55;13.40;99.90
1880;DHT22;49285;49.002;8.390;2023-10-31T08:20:20;13.40;99.90
1880;DHT22;49285;49.002;8.390;2023-10-31T08:22:46;13.30;99.90
1880;DHT22;49285;49.002;8.390;2023-10-31T08:25:11;13.40;99.90
1880;DHT22;49285;49.002;8.390;2023-10-31T08:27:37;13.50;99.90
1880;DHT22;49285;49.002;8.390;2023-10-31T08:30:03;13.50;99.90
1880;DHT22;49285;49.002;8.390;2023-10-31T08:32:29;13.50;99.90
1880;DHT22;49285;49.002;8.390;2023-10-31T08:34:54;13.40;99.90
1880;DHT22;49285;49.002;8.390;2023-10-31T08:37:22;13.40;99.90
1880;DHT22;49285;49.002;8.390;2023-10-31T08:39:47;13.40;99.90
1880;DHT22;49285;49.002;8.390;2023-10-31T08:42:13;13.60;99.90
1880;DHT22;49285;49.002;8.390;2023-10-31T08:44:40;13.60;99.90
1880;DHT22;49285;49.002;8.390;2023-10-31T08:47:05;13.50;99.90
1880;DHT22;49285;49.002;8.390;2023-10-31T08:49:31;13.60;99.90
1880;DHT22;49285;49.002;8.390;2023-10-31T08:51:57;13.60;99.90
1880;DHT22;49285;49.002;8.390;2023-10-31T08:54:23;13.60;99.90
1880;DHT22;49285;49.002;8.390;2023-10-31T08:56:48;13.70;99.90
1880;DHT22;49285;49.002;8.390;2023-10-31T08:59:14;13.70;99.90
1880;DHT22;49285;49.002;8.390;2023-10-31T09:01:40;13.70;99.90
1880;DHT22;49285;49.002;8.390;2023-10-31T09:04:05;13.60;99.90
1880;DHT22;49285;49.002;8.390;2023-10-31T09:06:31;13.60;99.90
1880;DHT22;49285;49.002;8.390;2023-10-31T09:08:56;13.70;99.90
1880;DHT22;49285;49.002;8.390;2023-10-31T09:11:22;13.70;99.90
1880;DHT22;49285;49.002;8.390;2023-10-31T09:13:48;13.60;99.90
1880;DHT22;49285;49.002;8.390;2023-10-31T09:16:13;13.70;99.90
1880;DHT22;49285;49.002;8.390;2023-10-31T09:18:39;13.70;99.90
1880;DHT22;49285;49.002;8.390;2023-10-31T09:21:04;13.70;99.90
1880;DHT22;49285;49.002;8.390;2023-10-31T09:23:30;13.80;99.90
1880;DHT22;49285;49.002;8.390;2023-10-31T09:25:56;13.80;99.90
1880;DHT22;49285;49.002;8.390;2023-10-31T09:28:22;13.90;99.90
1880;DHT22;49285;49.002;8.390;2023-10-31T09:30:48;13.90;99.90
1880;DHT22;49285;49.002;8.390;2023-10-31T09:33:15;13.80;99.90
1880;DHT22;49285;49.002;8.390;2023-10-31T09:35:40;13.80;99.90
1880;DHT22;49285;49.002;8.390;2023-10-31T09:38:06;13.80;99.90
1880;DHT22;49285;49.002;8.390;2023-10-31T09:40:32;13.80;99.90
1880;DHT22;49285;49.002;8.390;2023-10-31T09:42:57;13.90;99.90
1880;DHT22;49285;49.002;8.390;2023-10-31T09:45:23;13.90;99.90
1880;DHT22;49285;49.002;8.390;2023-10-31T09:47:48;13.80;99.90
1880;DHT22;49285;49.002;8.390;2023-10-31T09:50:14;13.90;99.90
1880;DHT22;49285;49.002;8.390;2023-10-31T09:52:40;14.00;99.90
1880;DHT22;49285;49.002;8.390;2023-10-31T09:55:06;13.90;99.90
1880;DHT22;49285;49.002;8.390;2023-10-31T09:57:33;14.00;99.90
1880;DHT22;49285;49.002;8.390;2023-10-31T09:59:59;14.10;99.90
1880;DHT22;49285;49.002;8.390;2023-10-31T10:02:24;14.00;99.90
1880;DHT22;49285;49.002;8.390;2023-10-31T10:04:50;14.00;99.90
1880;DHT22;49285;49.002;8.390;2023-10-31T10:07:17;14.20;99.90
1880;DHT22;49285;49.002;8.390;2023-10-31T10:09:44;14.30;99.90
1880;DHT22;49285;49.002;8.390;2023-10-31T10:12:14;14.40;99.90
1880;DHT22;49285;49.002;8.390;2023-10-31T10:14:40;14.50;99.90
1880;DHT22;49285;49.002;8.390;2023-10-31T10:17:24;14.50;99.90
1880;DHT22;49285;49.002;8.390;2023-10-31T10:20:05;14.50;99.90
1880;DHT22;49285;49.002;8.390;2023-10-31T10:22:39;14.50;99.90
1880;DHT22;49285;49.002;8.390;2023-10-31T10:25:06;14.40;99.90
1880;DHT22;49285;49.002;8.390;2023-10-31T10:27:32;14.30;99.90
1880;DHT22;49285;49.002;8.390;2023-10-31T10:29:58;14.30;99.90
1880;DHT22;49285;49.002;8.390;2023-10-31T10:32:24;14.20;99.90
1880;DHT22;49285;49.002;8.390;2023-10-31T10:34:50;14.20;99.90
1880;DHT22;49285;49.002;8.390;2023-10-31T10:37:17;14.10;99.90
1880;DHT22;49285;49.002;8.390;2023-10-31T10:39:47;14.00;99.90
1880;DHT22;49285;49.002;8.390;2023-10-31T10:42:17;14.10;99.90
1880;DHT22;49285;49.002;8.390;2023-10-31T10:44:44;14.20;99.90
1880;DHT22;49285;49.002;8.390;2023-10-31T10:47:12;14.40;99.90
1880;DHT22;49285;49.002;8.390;2023-10-31T10:49:41;14.50;99.90
1880;DHT22;49285;49.002;8.390;2023-10-31T10:52:22;14.50;99.90
1880;DHT22;49285;49.002;8.390;2023-10-31T11:00:16;14.40;99.90
1880;DHT22;49285;49.002;8.390;2023-10-31T11:02:43;14.60;99.90
1880;DHT22;49285;49.002;8.390;2023-10-31T11:05:09;14.60;99.90
1880;DHT22;49285;49.002;8.390;2023-10-31T11:07:39;14.60;99.90
1880;DHT22;49285;49.002;8.390;2023-10-31T11:10:05;14.60;99.90
1880;DHT22;49285;49.002;8.390;2023-10-31T11:12:32;14.60;99.90
1880;DHT22;49285;49.002;8.390;2023-10-31T11:14:58;14.60;99.90
1880;DHT22;49285;49.002;8.390;2023-10-31T11:17:29;14.70;99.90
1880;DHT22;49285;49.002;8.390;2023-10-31T11:19:56;14.80;99.90
1880;DHT22;49285;49.002;8.390;2023-10-31T11:22:22;14.80;99.90
1880;DHT22;49285;49.002;8.390;2023-10-31T11:24:49;14.80;99.90
1880;DHT22;49285;49.002;8.390;2023-10-31T11:27:17;14.90;99.90
1880;DHT22;49285;49.002;8.390;2023-10-31T11:29:43;14.90;99.90
1880;DHT22;49285;49.002;8.390;2023-10-31T11:32:10;15.00;99.90
1880;DHT22;49285;49.002;8.390;2023-10-31T11:34:38;14.90;99.90
1880;DHT22;49285;49.002;8.390;2023-10-31T11:42:38;15.10;99.90
1880;DHT22;49285;49.002;8.390;2023-10-31T11:45:04;15.00;99.90
1880;DHT22;49285;49.002;8.390;2023-10-31T11:47:50;14.90;99.90
1880;DHT22;49285;49.002;8.390;2023-10-31T11:50:16;14.90;99.90
1880;DHT22;49285;49.002;8.390;2023-10-31T11:52:42;14.80;99.90
1880;DHT22;49285;49.002;8.390;2023-10-31T11:55:11;15.20;99.90
1880;DHT22;49285;49.002;8.390;2023-10-31T11:57:40;15.40;99.90
1880;DHT22;49285;49.002;8.390;2023-10-31T12:00:06;15.60;99.90
1880;DHT22;49285;49.002;8.390;2023-10-31T12:02:35;15.70;99.90
1880;DHT22;49285;49.002;8.390;2023-10-31T12:05:11;16.30;99.90
1880;DHT22;49285;49.002;8.390;2023-10-31T12:07:47;16.40;99.90
1880;DHT22;49285;49.002;8.390;2023-10-31T12:10:15;16.30;99.90
1880;DHT22;49285;49.002;8.390;2023-10-31T12:12:47;16.20;99.90
1880;DHT22;49285;49.002;8.390;2023-10-31T12:15:13;16.10;99.90
1880;DHT22;49285;49.002;8.390;2023-10-31T12:17:38;15.80;99.90
1880;DHT22;49285;49.002;8.390;2023-10-31T12:20:06;15.80;99.90
1880;DHT22;49285;49.002;8.390;2023-10-31T12:22:32;15.50;99.90
1880;DHT22;49285;49.002;8.390;2023-10-31T12:25:05;15.30;99.90
1880;DHT22;49285;49.002;8.390;2023-10-31T12:27:48;15.10;99.90
1880;DHT22;49285;49.002;8.390;2023-10-31T12:30:17;15.00;99.90
1880;DHT22;49285;49.002;8.390;2023-10-31T12:32:44;14.80;99.90
1880;DHT22;49285;49.002;8.390;2023-10-31T12:35:15;14.70;99.90
1880;DHT22;49285;49.002;8.390;2023-10-31T12:37:48;15.30;99.90
1880;DHT22;49285;49.002;8.390;2023-10-31T12:40:17;16.20;99.90
1880;DHT22;49285;49.002;8.390;2023-10-31T12:42:44;16.50;99.90
1880;DHT22;49285;49.002;8.390;2023-10-31T12:45:11;16.50;99.90
1880;DHT22;49285;49.002;8.390;2023-10-31T12:47:37;16.40;99.90
1880;DHT22;49285;49.002;8.390;2023-10-31T12:50:12;16.50;99.90
1880;DHT22;49285;49.002;8.390;2023-10-31T12:52:52;16.30;99.90
1880;DHT22;49285;49.002;8.390;2023-10-31T12:55:22;16.20;99.90
1880;DHT22;49285;49.002;8.390;2023-10-31T12:57:48;16.10;99.90
1880;DHT22;49285;49.002;8.390;2023-10-31T13:00:15;15.90;99.90
1880;DHT22;49285;49.002;8.390;2023-10-31T13:02:43;15.70;99.90
1880;DHT22;49285;49.002;8.390;2023-10-31T13:05:15;15.80;99.90
1880;DHT22;49285;49.002;8.390;2023-10-31T13:07:50;15.60;99.90
1880;DHT22;49285;49.002;8.390;2023-10-31T13:10:24;15.40;99.90
1880;DHT22;49285;49.002;8.390;2023-10-31T13:12:51;15.50;99.90
1880;DHT22;49285;49.002;8.390;2023-10-31T13:15:18;15.70;99.90
1880;DHT22;49285;49.002;8.390;2023-10-31T13:17:44;15.80;99.90
1880;DHT22;49285;49.002;8.390;2023-10-31T13:20:11;15.80;99.90
1880;DHT22;49285;49.002;8.390;2023-10-31T13:22:38;15.80;99.90
1880;DHT22;49285;49.002;8.390;2023-10-31T13:25:05;15.90;99.90
1880;DHT22;49285;49.002;8.390;2023-10-31T13:27:31;16.00;99.90
1880;DHT22;49285;49.002;8.390;2023-10-31T13:29:57;16.10;99.90
1880;DHT22;49285;49.002;8.390;2023-10-31T13:32:23;16.20;99.90
1880;DHT22;49285;49.002;8.390;2023-10-31T13:34:49;16.30;99.90
1880;DHT22;49285;49.002;8.390;2023-10-31T13:37:15;16.30;99.90
1880;DHT22;49285;49.002;8.390;2023-10-31T13:39:41;16.20;99.90
1880;DHT22;49285;49.002;8.390;2023-10-31T13:42:06;16.20;99.90
1880;DHT22;49285;49.002;8.390;2023-10-31T13:44:32;16.10;99.90
1880;DHT22;49285;49.002;8.390;2023-10-31T13:46:58;16.20;99.90
1880;DHT22;49285;49.002;8.390;2023-10-31T13:49:24;16.30;99.90
1880;DHT22;49285;49.002;8.390;2023-10-31T13:51:50;16.20;99.90
1880;DHT22;49285;49.002;8.390;2023-10-31T13:54:15;16.40;99.90
1880;DHT22;49285;49.002;8.390;2023-10-31T13:56:41;16.60;99.90
1880;DHT22;49285;49.002;8.390;2023-10-31T13:59:06;16.90;99.90
1880;DHT22;49285;49.002;8.390;2023-10-31T14:01:32;17.20;99.90
1880;DHT22;49285;49.002;8.390;2023-10-31T14:03:58;17.30;99.90
1880;DHT22;49285;49.002;8.390;2023-10-31T14:06:23;17.20;99.90
1880;DHT22;49285;49.002;8.390;2023-10-31T14:08:58;17.20;99.90
1880;DHT22;49285;49.002;8.390;2023-10-31T14:11:24;17.20;99.90
1880;DHT22;49285;49.002;8.390;2023-10-31T14:13:50;17.20;99.90
1880;DHT22;49285;49.002;8.390;2023-10-31T14:16:16;17.00;99.90
1880;DHT22;49285;49.002;8.390;2023-10-31T14:18:42;17.00;99.90
1880;DHT22;49285;49.002;8.390;2023-10-31T14:21:08;17.00;99.90
1880;DHT22;49285;49.002;8.390;2023-10-31T14:23:36;16.90;99.90
1880;DHT22;49285;49.002;8.390;2023-10-31T14:26:02;17.00;99.90
1880;DHT22;49285;49.002;8.390;2023-10-31T14:28:27;16.90;99.90
1880;DHT22;49285;49.002;8.390;2023-10-31T14:30:53;16.80;99.90
1880;DHT22;49285;49.002;8.390;2023-10-31T14:33:19;16.80;99.90
1880;DHT22;49285;49.002;8.390;2023-10-31T14:35:45;16.70;99.90
1880;DHT22;49285;49.002;8.390;2023-10-31T14:38:11;16.70;99.90
1880;DHT22;49285;49.002;8.390;2023-10-31T14:40:36;16.60;99.90
1880;DHT22;49285;49.002;8.390;2023-10-31T14:43:02;16.40;99.90
1880;DHT22;49285;49.002;8.390;2023-10-31T14:45:27;16.20;99.90
1880;DHT22;49285;49.002;8.390;2023-10-31T14:47:53;16.10;99.90
1880;DHT22;49285;49.002;8.390;2023-10-31T14:50:19;16.00;99.90
1880;DHT22;49285;49.002;8.390;2023-10-31T14:52:47;15.80;99.90
1880;DHT22;49285;49.002;8.390;2023-10-31T14:55:13;15.70;99.90
1880;DHT22;49285;49.002;8.390;2023-10-31T14:57:39;15.50;99.90
1880;DHT22;49285;49.002;8.390;2023-10-31T15:00:08;15.40;99.90
1880;DHT22;49285;49.002;8.390;2023-10-31T15:02:35;15.50;99.90
1880;DHT22;49285;49.002;8.390;2023-10-31T15:05:01;15.40;99.90
1880;DHT22;49285;49.002;8.390;2023-10-31T15:07:29;15.40;99.90
1880;DHT22;49285;49.002;8.390;2023-10-31T15:09:54;15.30;99.90
1880;DHT22;49285;49.002;8.390;2023-10-31T15:12:20;15.30;99.90
1880;DHT22;49285;49.002;8.390;2023-10-31T15:14:46;15.30;99.90
1880;DHT22;49285;49.002;8.390;2023-10-31T15:17:11;15.30;99.90
1880;DHT22;49285;49.002;8.390;2023-10-31T15:19:37;15.30;99.90
1880;DHT22;49285;49.002;8.390;2023-10-31T15:22:03;15.20;99.90
1880;DHT22;49285;49.002;8.390;2023-10-31T15:24:28;15.20;99.90
1880;DHT22;49285;49.002;8.390;2023-10-31T15:26:55;15.20;99.90
1880;DHT22;49285;49.002;8.390;2023-10-31T15:29:21;15.10;99.90
1880;DHT22;49285;49.002;8.390;2023-10-31T15:31:47;15.10;99.90
1880;DHT22;49285;49.002;8.390;2023-10-31T15:34:14;15.00;99.90
1880;DHT22;49285;49.002;8.390;2023-10-31T15:36:40;15.00;99.90
1880;DHT22;49285;49.002;8.390;2023-10-31T15:39:06;15.10;99.90
1880;DHT22;49285;49.002;8.390;2023-10-31T15:41:32;15.10;99.90
1880;DHT22;49285;49.002;8.390;2023-10-31T15:43:58;15.00;99.90
1880;DHT22;49285;49.002;8.390;2023-10-31T15:46:24;15.10;99.90
1880;DHT22;49285;49.002;8.390;2023-10-31T15:48:50;15.00;99.90
1880;DHT22;49285;49.002;8.390;2023-10-31T15:51:15;14.90;99.90